Time;durP1;ratioP1;P1;durP2;ratioP2;P2;SDS_P1;SDS_P2;PMS_P1;PMS_P2;Temp;Humidity;BMP_temperature;BMP_pressure;BME280_temperature;BME280_humidity;BME280_pressure;Samples;Min_cycle;Max_cycle;Signal;HPM_P1;HPM_P2
2022/02/26 00:01:34;;;;;;;8.38;3.00;;;2.20;99.90;;;;;;5046085;28;20029;-91
2022/02/26 00:04:00;;;;;;;9.88;3.00;;;2.10;99.90;;;;;;5041060;28;20075;-91
2022/02/26 00:06:26;;;;;;;8.95;2.97;;;2.10;99.90;;;;;;5041444;28;20065;-93
2022/02/26 00:08:51;;;;;;;11.15;3.20;;;2.10;99.90;;;;;;5037053;28;20495;-93
2022/02/26 00:11:17;;;;;;;9.63;3.15;;;2.00;99.90;;;;;;5042167;28;20025;-90
2022/02/26 00:13:43;;;;;;;11.75;2.78;;;2.00;99.90;;;;;;5043291;28;20515;-92
2022/02/26 00:16:08;;;;;;;8.90;3.08;;;2.00;99.90;;;;;;5039895;28;20372;-94
2022/02/26 00:18:34;;;;;;;7.72;2.60;;;2.00;99.90;;;;;;5036626;28;20063;-91
2022/02/26 00:21:00;;;;;;;5.78;2.38;;;2.00;99.90;;;;;;5039225;28;20136;-91
2022/02/26 00:23:26;;;;;;;10.20;3.00;;;1.90;99.90;;;;;;5043081;28;20033;-89
2022/02/26 00:25:52;;;;;;;5.85;2.33;;;1.90;99.90;;;;;;5046002;28;20040;-90
2022/02/26 00:28:20;;;;;;;8.70;3.22;;;1.80;99.90;;;;;;5048992;28;20037;-90
2022/02/26 00:30:46;;;;;;;7.70;2.58;;;1.80;99.90;;;;;;5030125;28;20029;-89
2022/02/26 00:33:13;;;;;;;10.32;2.50;;;1.80;99.90;;;;;;5047658;28;20029;-90
2022/02/26 00:35:39;;;;;;;9.85;2.60;;;1.80;99.90;;;;;;5046560;28;20026;-90
2022/02/26 00:38:05;;;;;;;9.70;2.58;;;1.80;99.90;;;;;;5049813;28;20116;-91
2022/02/26 00:40:31;;;;;;;7.18;2.38;;;1.70;99.90;;;;;;5046797;28;20033;-90
2022/02/26 00:42:57;;;;;;;8.95;2.78;;;1.70;99.90;;;;;;5043785;28;20048;-92
2022/02/26 00:45:23;;;;;;;9.35;2.65;;;1.70;99.90;;;;;;5038864;28;20132;-90
2022/02/26 00:47:49;;;;;;;8.18;2.78;;;1.70;99.90;;;;;;5042696;28;20479;-91
2022/02/26 00:50:16;;;;;;;10.88;2.72;;;1.60;99.90;;;;;;5045106;28;20456;-91
2022/02/26 00:52:42;;;;;;;9.30;2.45;;;1.60;99.90;;;;;;5043116;28;20055;-91
2022/02/26 00:55:09;;;;;;;6.95;2.53;;;1.60;99.90;;;;;;5040534;28;20158;-90
2022/02/26 00:57:35;;;;;;;7.05;2.80;;;1.60;99.90;;;;;;5040737;28;20041;-92
2022/02/26 01:00:01;;;;;;;11.23;3.08;;;1.50;99.90;;;;;;5043986;28;20036;-92
2022/02/26 01:02:27;;;;;;;10.23;3.00;;;1.50;99.90;;;;;;5045304;28;20021;-91
2022/02/26 01:04:54;;;;;;;8.40;3.13;;;1.50;99.90;;;;;;5023921;28;20054;-92
2022/02/26 01:07:19;;;;;;;7.60;2.65;;;1.50;99.90;;;;;;5039387;28;20440;-92
2022/02/26 01:09:45;;;;;;;8.73;2.40;;;1.50;99.90;;;;;;5043152;28;20045;-92
2022/02/26 01:12:11;;;;;;;9.10;2.70;;;1.50;99.90;;;;;;5046618;28;20060;-90
2022/02/26 01:14:38;;;;;;;9.20;2.72;;;1.50;99.90;;;;;;5027778;28;20041;-91
2022/02/26 01:17:06;;;;;;;6.25;2.28;;;1.40;99.90;;;;;;5041771;28;20022;-90
2022/02/26 01:19:32;;;;;;;6.93;2.63;;;1.40;99.90;;;;;;5044375;28;20040;-90
2022/02/26 01:21:58;;;;;;;7.25;2.78;;;1.30;99.90;;;;;;5046934;28;20124;-88
2022/02/26 01:24:24;;;;;;;6.97;2.80;;;1.30;99.90;;;;;;5048359;28;20053;-90
2022/02/26 01:26:50;;;;;;;11.43;2.67;;;1.30;99.90;;;;;;5048549;28;20387;-89
2022/02/26 01:29:16;;;;;;;7.93;2.53;;;1.20;99.90;;;;;;5048914;28;20045;-89
2022/02/26 01:31:41;;;;;;;10.48;2.40;;;1.20;99.90;;;;;;5048483;28;20034;-90
2022/02/26 01:34:08;;;;;;;6.75;3.05;;;1.20;99.90;;;;;;5046210;28;20396;-90
2022/02/26 01:36:34;;;;;;;10.00;3.08;;;1.20;99.90;;;;;;5047808;28;20044;-91
2022/02/26 01:39:00;;;;;;;7.75;2.40;;;1.20;99.90;;;;;;5045644;28;20434;-90
2022/02/26 01:41:28;;;;;;;8.07;2.90;;;1.20;99.90;;;;;;5054509;28;20013;-88
2022/02/26 01:43:55;;;;;;;8.65;2.88;;;1.20;99.90;;;;;;5059800;28;20026;-88
2022/02/26 01:46:22;;;;;;;7.28;2.58;;;1.20;99.90;;;;;;5059610;28;20017;-89
2022/02/26 01:48:48;;;;;;;10.02;3.08;;;1.20;99.90;;;;;;5058984;28;20053;-88
2022/02/26 01:51:14;;;;;;;12.30;2.78;;;1.10;99.90;;;;;;5056372;28;20049;-91
2022/02/26 01:53:39;;;;;;;8.95;2.75;;;1.10;99.90;;;;;;5058305;28;20033;-89
2022/02/26 01:56:07;;;;;;;13.98;3.55;;;1.10;99.90;;;;;;5058154;28;20101;-91
2022/02/26 01:58:35;;;;;;;9.60;3.25;;;1.10;99.90;;;;;;5058451;28;20053;-88
2022/02/26 02:01:02;;;;;;;9.40;2.80;;;1.10;99.90;;;;;;5055975;28;20029;-92
2022/02/26 02:03:27;;;;;;;8.02;2.80;;;1.00;99.90;;;;;;5052232;28;20603;-92
2022/02/26 02:05:58;;;;;;;10.35;3.05;;;1.00;99.90;;;;;;5057039;28;20013;-90
2022/02/26 02:08:24;;;;;;;6.95;2.42;;;1.00;99.90;;;;;;5042115;28;20117;-91
2022/02/26 02:10:51;;;;;;;7.65;2.60;;;1.00;99.90;;;;;;5038160;28;20052;-89
2022/02/26 02:13:18;;;;;;;7.35;2.90;;;1.00;99.90;;;;;;5042909;28;20364;-90
2022/02/26 02:15:45;;;;;;;11.35;3.20;;;1.00;99.90;;;;;;5044165;28;20112;-91
2022/02/26 02:18:12;;;;;;;9.50;2.85;;;0.90;99.90;;;;;;5038749;28;20084;-91
2022/02/26 02:20:39;;;;;;;7.45;2.88;;;0.80;99.90;;;;;;5040731;28;20033;-89
2022/02/26 02:23:05;;;;;;;10.57;3.22;;;0.80;99.90;;;;;;5042599;28;20039;-90
2022/02/26 02:25:36;;;;;;;9.00;3.08;;;0.70;99.90;;;;;;5045074;28;20124;-90
2022/02/26 02:28:04;;;;;;;9.70;3.60;;;0.70;99.90;;;;;;5045797;28;20101;-91
2022/02/26 02:30:30;;;;;;;9.13;2.97;;;0.70;99.90;;;;;;5045232;28;20038;-92
2022/02/26 02:32:57;;;;;;;8.52;3.38;;;0.60;99.90;;;;;;5041312;28;20029;-92
2022/02/26 02:35:28;;;;;;;9.80;3.15;;;0.60;99.90;;;;;;5038602;28;20033;-91
2022/02/26 02:37:54;;;;;;;10.77;3.42;;;0.60;99.90;;;;;;5036403;28;20041;-90
2022/02/26 02:40:20;;;;;;;10.65;3.08;;;0.60;99.90;;;;;;5036190;28;20068;-89
2022/02/26 02:42:46;;;;;;;6.80;3.15;;;0.60;99.90;;;;;;5036071;28;20101;-89
2022/02/26 02:45:12;;;;;;;7.95;2.97;;;0.60;99.90;;;;;;5036733;28;20111;-90
2022/02/26 02:47:38;;;;;;;8.38;3.20;;;0.60;99.90;;;;;;5037597;28;20483;-91
2022/02/26 02:50:04;;;;;;;8.63;3.55;;;0.60;99.90;;;;;;5036188;28;20029;-90
2022/02/26 02:52:30;;;;;;;9.90;4.20;;;0.60;99.90;;;;;;5036626;28;20056;-92
2022/02/26 02:54:56;;;;;;;8.68;3.78;;;0.60;99.90;;;;;;5020086;28;20037;-91
2022/02/26 02:57:21;;;;;;;6.43;2.92;;;0.50;99.90;;;;;;5036227;28;20400;-92
2022/02/26 02:59:47;;;;;;;8.30;3.45;;;0.50;99.90;;;;;;5036145;28;20501;-91
2022/02/26 03:02:13;;;;;;;9.77;3.35;;;0.50;99.90;;;;;;5035728;28;20071;-89
2022/02/26 03:04:38;;;;;;;12.27;4.00;;;0.50;99.90;;;;;;5035926;28;20087;-91
2022/02/26 03:07:04;;;;;;;7.22;3.00;;;0.50;99.90;;;;;;5035895;28;20065;-90
2022/02/26 03:09:30;;;;;;;12.95;4.00;;;0.50;99.90;;;;;;5035987;28;20137;-89
2022/02/26 03:11:55;;;;;;;10.23;3.42;;;0.50;99.90;;;;;;5035762;28;20030;-90
2022/02/26 03:14:21;;;;;;;8.57;3.55;;;0.40;99.90;;;;;;5035075;28;20043;-91
2022/02/26 03:16:47;;;;;;;9.80;3.42;;;0.40;99.90;;;;;;5035208;28;20116;-90
2022/02/26 03:19:12;;;;;;;9.27;3.67;;;0.40;99.90;;;;;;5035512;28;20065;-91
2022/02/26 03:21:39;;;;;;;11.60;4.47;;;0.40;99.90;;;;;;5035176;28;20124;-90
2022/02/26 03:24:06;;;;;;;10.63;4.20;;;0.40;99.90;;;;;;5039159;28;20037;-90
2022/02/26 03:26:33;;;;;;;9.60;4.00;;;0.40;99.90;;;;;;5042759;28;20551;-91
2022/02/26 03:28:59;;;;;;;9.15;3.33;;;0.30;99.90;;;;;;5040624;28;20045;-88
2022/02/26 03:31:24;;;;;;;11.60;4.03;;;0.30;99.90;;;;;;5042989;28;20029;-88
2022/02/26 03:33:50;;;;;;;6.53;3.60;;;0.30;99.90;;;;;;5044046;28;20426;-88
2022/02/26 03:36:15;;;;;;;8.75;3.85;;;0.30;99.90;;;;;;5042962;28;20030;-89
2022/02/26 03:38:42;;;;;;;8.70;3.90;;;0.30;99.90;;;;;;5038557;28;20092;-91
2022/02/26 03:41:10;;;;;;;10.57;4.13;;;0.20;99.90;;;;;;5035022;28;20033;-90
2022/02/26 03:43:36;;;;;;;8.57;4.20;;;0.20;99.90;;;;;;5035371;28;20037;-91
2022/02/26 03:46:02;;;;;;;9.52;4.32;;;0.20;99.90;;;;;;5034686;28;20128;-90
2022/02/26 03:48:27;;;;;;;12.35;4.72;;;0.20;99.90;;;;;;5036766;28;20049;-91
2022/02/26 03:50:53;;;;;;;9.68;4.68;;;0.20;99.90;;;;;;5040425;28;20068;-90
2022/02/26 03:53:18;;;;;;;10.48;4.25;;;0.10;99.90;;;;;;5036166;28;20033;-91
2022/02/26 03:55:44;;;;;;;12.10;5.45;;;0.10;99.90;;;;;;5034759;28;20041;-90
2022/02/26 03:58:10;;;;;;;11.27;4.97;;;0.10;99.90;;;;;;5035021;28;20053;-90
2022/02/26 04:00:35;;;;;;;9.80;4.78;;;0.10;99.90;;;;;;5034835;28;20040;-92
2022/02/26 04:03:01;;;;;;;7.75;4.20;;;0.10;99.90;;;;;;5035064;28;20025;-92
2022/02/26 04:05:27;;;;;;;9.85;4.43;;;0.00;99.90;;;;;;5034744;28;20025;-91
2022/02/26 04:07:52;;;;;;;8.70;4.90;;;0.00;99.90;;;;;;5034424;28;20072;-90
2022/02/26 04:10:18;;;;;;;9.05;4.10;;;0.00;99.90;;;;;;5034738;28;20036;-91
2022/02/26 04:12:43;;;;;;;10.10;4.07;;;0.00;99.90;;;;;;5034650;28;20132;-91
2022/02/26 04:15:09;;;;;;;6.97;4.13;;;0.00;99.90;;;;;;5034903;28;20034;-90
2022/02/26 04:17:35;;;;;;;6.22;3.70;;;0.00;99.90;;;;;;5034454;28;20030;-91
2022/02/26 04:20:01;;;;;;;8.05;4.07;;;0.00;99.90;;;;;;5033927;28;20030;-90
2022/02/26 04:22:26;;;;;;;8.18;4.20;;;0.00;99.90;;;;;;5033804;28;20042;-91
2022/02/26 04:24:52;;;;;;;7.75;3.95;;;0.00;99.90;;;;;;5034313;28;20029;-90
2022/02/26 04:27:17;;;;;;;6.10;3.58;;;0.00;99.90;;;;;;5034523;28;20041;-91
2022/02/26 04:29:43;;;;;;;5.88;3.83;;;0.00;99.90;;;;;;5034453;28;20052;-89
2022/02/26 04:32:09;;;;;;;7.03;4.05;;;0.00;99.90;;;;;;5034017;28;20026;-91
2022/02/26 04:34:34;;;;;;;6.30;3.88;;;0.00;99.90;;;;;;5033985;28;20065;-90
2022/02/26 04:37:00;;;;;;;9.88;4.85;;;0.10;99.90;;;;;;5034913;28;20029;-90
2022/02/26 04:39:26;;;;;;;15.70;4.90;;;0.10;99.90;;;;;;5034122;28;20029;-91
2022/02/26 04:41:52;;;;;;;10.00;4.07;;;0.10;99.90;;;;;;5034663;28;20128;-91
2022/02/26 04:44:17;;;;;;;10.63;4.65;;;0.10;99.90;;;;;;5034050;28;20043;-87
2022/02/26 04:46:43;;;;;;;8.75;4.88;;;0.20;99.90;;;;;;5034207;28;20034;-89
2022/02/26 04:49:09;;;;;;;9.00;5.47;;;0.30;99.90;;;;;;5033727;28;20052;-89
2022/02/26 04:51:34;;;;;;;11.35;4.97;;;0.30;99.90;;;;;;5033545;28;20463;-89
2022/02/26 04:54:00;;;;;;;10.57;5.20;;;0.40;99.90;;;;;;5033560;28;20159;-87
2022/02/26 04:56:25;;;;;;;12.13;6.05;;;0.40;99.90;;;;;;5033234;28;20494;-90
2022/02/26 04:58:51;;;;;;;12.35;5.30;;;0.30;99.90;;;;;;5018536;28;20046;-91
2022/02/26 05:01:17;;;;;;;11.10;6.13;;;0.40;99.90;;;;;;5035328;28;20399;-90
2022/02/26 05:03:43;;;;;;;12.90;5.55;;;0.40;99.90;;;;;;5033490;28;20491;-90
2022/02/26 05:06:09;;;;;;;21.20;5.80;;;0.40;99.90;;;;;;5033826;28;20030;-89
2022/02/26 05:08:35;;;;;;;9.85;4.80;;;0.50;99.90;;;;;;5033912;28;20042;-90
2022/02/26 05:11:01;;;;;;;14.15;5.93;;;0.50;99.90;;;;;;5033975;28;20030;-91
2022/02/26 05:13:26;;;;;;;16.92;5.30;;;0.60;99.90;;;;;;5034030;28;20044;-91
2022/02/26 05:15:52;;;;;;;13.30;5.70;;;0.60;99.90;;;;;;5034176;28;20038;-90
2022/02/26 05:18:17;;;;;;;13.23;5.85;;;0.60;99.90;;;;;;5034002;28;20041;-89
2022/02/26 05:20:43;;;;;;;17.90;5.40;;;0.60;99.90;;;;;;5033890;28;20124;-92
2022/02/26 05:23:09;;;;;;;14.68;5.97;;;0.70;99.90;;;;;;5033893;28;20035;-92
2022/02/26 05:25:35;;;;;;;14.82;5.20;;;0.60;99.90;;;;;;5033855;28;20034;-92
2022/02/26 05:28:01;;;;;;;20.50;5.30;;;0.60;99.90;;;;;;5033702;28;20040;-92
2022/02/26 05:30:27;;;;;;;23.58;5.07;;;0.70;99.90;;;;;;5034279;28;20124;-91
2022/02/26 05:32:53;;;;;;;18.77;5.95;;;0.70;99.90;;;;;;5033431;28;20025;-91
2022/02/26 05:35:19;;;;;;;16.75;5.10;;;0.70;99.90;;;;;;5033354;28;20033;-91
2022/02/26 05:37:44;;;;;;;20.25;5.47;;;0.70;99.90;;;;;;5033598;28;20121;-92
2022/02/26 05:40:11;;;;;;;17.75;6.32;;;0.70;99.90;;;;;;5033360;28;20041;-91
2022/02/26 05:42:36;;;;;;;12.38;5.55;;;0.70;99.90;;;;;;5033508;28;20026;-90
2022/02/26 05:45:03;;;;;;;23.63;6.05;;;0.70;99.90;;;;;;5032811;28;20087;-90
2022/02/26 05:47:29;;;;;;;13.45;6.03;;;0.70;99.90;;;;;;5035622;28;20141;-90
2022/02/26 05:49:55;;;;;;;16.88;5.60;;;0.70;99.90;;;;;;5036534;28;20045;-90
2022/02/26 05:52:20;;;;;;;10.07;5.65;;;0.80;99.90;;;;;;5019757;28;20048;-90
2022/02/26 05:54:46;;;;;;;9.98;5.28;;;0.80;99.90;;;;;;5036499;28;20094;-90
2022/02/26 05:57:12;;;;;;;20.63;4.95;;;0.80;99.90;;;;;;5039279;28;20140;-90
2022/02/26 05:59:37;;;;;;;14.98;6.47;;;0.80;99.90;;;;;;5042819;28;20063;-92
2022/02/26 06:02:03;;;;;;;8.48;4.97;;;0.80;99.90;;;;;;5037067;28;20428;-92
2022/02/26 06:04:29;;;;;;;11.02;5.47;;;0.80;99.90;;;;;;5037023;28;20120;-90
2022/02/26 06:06:55;;;;;;;17.10;5.97;;;0.90;99.90;;;;;;5037100;28;20026;-91
2022/02/26 06:09:20;;;;;;;15.52;5.95;;;0.80;99.90;;;;;;5038955;28;20041;-90
2022/02/26 06:11:46;;;;;;;18.70;5.55;;;0.80;99.90;;;;;;5044609;28;20045;-89
2022/02/26 06:14:12;;;;;;;24.10;7.13;;;0.80;99.90;;;;;;5044902;28;20052;-91
2022/02/26 06:16:37;;;;;;;18.00;6.18;;;0.80;99.90;;;;;;5043554;28;20036;-91
2022/02/26 06:19:03;;;;;;;18.02;6.43;;;0.80;99.90;;;;;;5040795;28;20127;-91
2022/02/26 06:21:29;;;;;;;18.77;6.50;;;0.80;99.90;;;;;;5037455;28;20379;-93
2022/02/26 06:23:54;;;;;;;26.48;7.07;;;0.80;99.90;;;;;;5036520;28;20080;-92
2022/02/26 06:26:20;;;;;;;9.27;6.15;;;0.80;99.90;;;;;;5036721;28;20044;-93
2022/02/26 06:28:46;;;;;;;12.50;6.50;;;0.80;99.90;;;;;;5037020;28;20048;-92
2022/02/26 06:31:11;;;;;;;17.92;6.88;;;0.80;99.90;;;;;;5036507;28;20037;-92
2022/02/26 06:33:37;;;;;;;13.77;6.80;;;0.90;99.90;;;;;;5036675;28;20120;-90
2022/02/26 06:36:03;;;;;;;16.90;7.80;;;0.90;99.90;;;;;;5036694;28;20021;-91
2022/02/26 06:38:29;;;;;;;22.10;7.47;;;0.90;99.90;;;;;;5036620;28;20030;-91
2022/02/26 06:40:55;;;;;;;17.20;7.80;;;0.90;99.90;;;;;;5036623;28;20083;-92
2022/02/26 06:43:21;;;;;;;8.20;6.30;;;0.90;99.90;;;;;;5036366;28;20495;-91
2022/02/26 06:45:47;;;;;;;22.73;8.23;;;0.90;99.90;;;;;;5036451;28;20041;-91
2022/02/26 06:48:12;;;;;;;30.88;9.20;;;0.90;99.90;;;;;;5036297;28;20030;-91
2022/02/26 06:50:38;;;;;;;24.98;8.93;;;0.90;99.90;;;;;;5036170;28;20040;-88
2022/02/26 06:53:04;;;;;;;14.68;7.97;;;0.90;99.90;;;;;;5034653;28;20030;-91
2022/02/26 06:55:29;;;;;;;25.85;9.10;;;0.80;99.90;;;;;;5035574;28;20048;-92
2022/02/26 06:57:55;;;;;;;14.57;8.18;;;0.90;99.90;;;;;;5034787;28;20046;-87
2022/02/26 07:00:21;;;;;;;20.73;8.70;;;0.90;99.90;;;;;;5035231;28;20026;-88
2022/02/26 07:02:47;;;;;;;19.58;9.07;;;0.90;99.90;;;;;;5035123;28;20025;-92
2022/02/26 07:05:12;;;;;;;11.95;8.80;;;0.90;99.90;;;;;;5035924;28;20026;-92
2022/02/26 07:07:38;;;;;;;18.67;8.60;;;0.90;99.90;;;;;;5035338;28;20029;-93
2022/02/26 07:10:04;;;;;;;12.07;8.98;;;0.90;99.90;;;;;;5035422;28;20025;-92
2022/02/26 07:12:30;;;;;;;21.15;9.60;;;1.00;99.90;;;;;;5034654;28;20029;-91
2022/02/26 07:14:56;;;;;;;21.75;9.38;;;1.00;99.90;;;;;;5034351;28;20116;-91
2022/02/26 07:17:21;;;;;;;26.98;9.65;;;1.00;99.90;;;;;;5031811;28;20025;-92
2022/02/26 07:19:47;;;;;;;10.95;8.35;;;1.00;99.90;;;;;;5032510;28;20033;-91
2022/02/26 07:22:13;;;;;;;13.60;8.48;;;1.00;99.90;;;;;;5033582;28;20392;-91
2022/02/26 07:24:38;;;;;;;13.32;8.38;;;1.10;99.90;;;;;;5033566;28;20117;-90
2022/02/26 07:27:04;;;;;;;18.60;9.80;;;1.10;99.90;;;;;;5032759;28;20045;-89
2022/02/26 07:29:30;;;;;;;19.38;11.35;;;1.10;99.90;;;;;;5033411;28;20525;-91
2022/02/26 07:31:55;;;;;;;13.63;9.88;;;1.10;99.90;;;;;;5033522;28;20376;-91
2022/02/26 07:34:21;;;;;;;18.10;10.40;;;1.10;99.90;;;;;;5034024;28;20060;-91
2022/02/26 07:36:47;;;;;;;13.35;10.48;;;1.10;99.90;;;;;;5033407;28;20029;-91
2022/02/26 07:39:12;;;;;;;15.60;10.38;;;1.10;99.90;;;;;;5033985;28;20026;-92
2022/02/26 07:41:38;;;;;;;17.65;10.85;;;1.10;99.90;;;;;;5027028;28;20040;-92
2022/02/26 07:44:04;;;;;;;11.60;9.98;;;1.20;99.90;;;;;;5018990;28;20042;-91
2022/02/26 07:46:30;;;;;;;14.52;10.75;;;1.20;99.90;;;;;;5026487;28;20064;-92
2022/02/26 07:48:56;;;;;;;21.65;11.40;;;1.20;99.90;;;;;;5020883;28;20079;-92
2022/02/26 07:51:21;;;;;;;18.23;10.13;;;1.30;99.90;;;;;;5025275;28;20044;-92
2022/02/26 07:53:47;;;;;;;14.48;11.00;;;1.30;99.90;;;;;;5024203;28;20544;-94
2022/02/26 07:56:13;;;;;;;18.88;11.35;;;1.30;99.90;;;;;;5027279;28;20033;-90
2022/02/26 07:58:39;;;;;;;15.85;10.23;;;1.40;99.90;;;;;;5022225;28;20491;-92
2022/02/26 08:01:04;;;;;;;19.20;12.40;;;1.40;99.90;;;;;;5020625;28;20064;-92
2022/02/26 08:03:30;;;;;;;22.23;12.88;;;1.50;99.90;;;;;;5020479;28;20084;-91
2022/02/26 08:05:56;;;;;;;25.20;13.45;;;1.60;99.90;;;;;;5013877;28;20557;-92
2022/02/26 08:08:22;;;;;;;19.15;12.75;;;1.60;99.90;;;;;;5034071;28;20177;-92
2022/02/26 08:10:48;;;;;;;20.20;14.75;;;1.70;99.90;;;;;;5017835;28;20045;-94
2022/02/26 08:13:14;;;;;;;21.30;12.88;;;1.80;99.90;;;;;;5023155;28;20026;-87
2022/02/26 08:15:40;;;;;;;21.95;14.18;;;1.80;99.90;;;;;;5028085;28;20060;-91
2022/02/26 08:18:06;;;;;;;19.92;13.55;;;1.90;99.90;;;;;;5029680;28;20060;-90
2022/02/26 08:20:32;;;;;;;19.10;12.77;;;2.00;99.90;;;;;;5033668;28;20033;-90
2022/02/26 08:22:58;;;;;;;17.25;13.55;;;2.00;99.90;;;;;;5033129;28;20132;-90
2022/02/26 08:25:24;;;;;;;20.73;14.57;;;2.10;99.90;;;;;;5039631;28;20084;-89
2022/02/26 08:27:50;;;;;;;21.60;14.50;;;2.20;99.90;;;;;;5032945;28;20128;-91
2022/02/26 08:30:17;;;;;;;19.27;13.27;;;2.30;99.90;;;;;;5032858;28;20504;-90
2022/02/26 08:32:43;;;;;;;18.05;14.05;;;2.40;99.90;;;;;;5033003;28;20486;-90
2022/02/26 08:35:10;;;;;;;18.95;14.80;;;2.50;99.90;;;;;;5032880;28;20029;-91
2022/02/26 08:37:38;;;;;;;18.88;13.48;;;2.60;99.90;;;;;;5036366;28;20159;-91
2022/02/26 08:40:06;;;;;;;18.80;14.23;;;2.70;99.90;;;;;;5034007;28;20037;-91
2022/02/26 08:42:33;;;;;;;24.80;19.88;;;2.80;99.90;;;;;;5036495;28;20034;-91
2022/02/26 08:45:02;;;;;;;22.75;17.38;;;2.90;99.90;;;;;;5036704;28;20037;-90
2022/02/26 08:47:29;;;;;;;22.70;17.30;;;3.00;99.90;;;;;;5033793;28;20072;-91
2022/02/26 08:49:56;;;;;;;22.40;16.50;;;3.10;99.90;;;;;;5038356;28;20033;-89
2022/02/26 08:52:22;;;;;;;24.77;18.85;;;3.20;99.90;;;;;;5035807;28;20029;-91
2022/02/26 08:54:48;;;;;;;23.20;18.10;;;3.30;99.90;;;;;;5035689;28;20033;-93
2022/02/26 08:57:13;;;;;;;28.08;20.70;;;3.50;99.90;;;;;;5049351;28;20040;-91
2022/02/26 08:59:39;;;;;;;25.52;19.80;;;3.60;99.90;;;;;;5050257;28;20036;-89
2022/02/26 09:02:05;;;;;;;39.20;21.70;;;3.60;99.90;;;;;;5049161;28;20556;-91
2022/02/26 09:04:31;;;;;;;30.48;21.30;;;3.70;99.90;;;;;;5050711;28;20072;-91
2022/02/26 09:06:57;;;;;;;23.35;18.23;;;3.80;99.90;;;;;;5052942;28;20018;-91
2022/02/26 09:09:22;;;;;;;24.88;19.13;;;3.90;99.90;;;;;;5048804;28;20065;-89
2022/02/26 09:11:48;;;;;;;24.92;18.45;;;4.00;99.90;;;;;;5040726;28;20026;-90
2022/02/26 09:14:14;;;;;;;28.67;20.17;;;4.10;99.90;;;;;;5039965;28;20029;-90
2022/02/26 09:16:40;;;;;;;28.48;20.70;;;4.30;99.90;;;;;;5037805;28;20570;-89
2022/02/26 09:19:05;;;;;;;37.33;20.08;;;4.40;99.90;;;;;;5033974;28;20053;-88
2022/02/26 09:21:31;;;;;;;25.20;21.85;;;4.50;99.90;;;;;;5036102;28;20079;-88
2022/02/26 09:23:57;;;;;;;25.88;21.73;;;4.60;99.90;;;;;;5037121;28;20028;-88
2022/02/26 09:26:22;;;;;;;24.90;21.42;;;4.70;99.90;;;;;;5038747;28;20038;-89
2022/02/26 09:28:48;;;;;;;24.70;21.80;;;4.90;99.90;;;;;;5038334;28;20057;-90
2022/02/26 09:31:15;;;;;;;25.63;21.48;;;5.10;99.90;;;;;;5038871;28;20394;-89
2022/02/26 09:33:41;;;;;;;21.67;19.17;;;5.20;99.90;;;;;;5038222;28;20061;-90
2022/02/26 09:36:08;;;;;;;23.58;19.65;;;6.00;99.90;;;;;;5049296;28;20013;-90
2022/02/26 09:38:35;;;;;;;16.50;14.73;;;7.30;99.90;;;;;;5040873;28;20025;-90
2022/02/26 09:41:04;;;;;;;19.52;14.15;;;8.40;99.90;;;;;;5051673;28;20100;-89
2022/02/26 09:43:30;;;;;;;15.60;11.95;;;9.40;99.90;;;;;;5049689;28;20040;-90
2022/02/26 09:45:57;;;;;;;13.18;10.10;;;10.30;99.90;;;;;;5049728;28;20096;-89
2022/02/26 09:48:23;;;;;;;10.55;8.70;;;11.10;99.90;;;;;;5047589;28;20025;-90
2022/02/26 09:50:50;;;;;;;10.82;8.52;;;11.90;99.90;;;;;;5047628;28;20029;-89
2022/02/26 09:53:19;;;;;;;13.45;8.65;;;12.70;99.90;;;;;;5048282;28;20091;-88
2022/02/26 09:55:45;;;;;;;12.45;8.27;;;13.40;99.90;;;;;;5051811;28;20109;-91
2022/02/26 09:58:15;;;;;;;11.75;8.93;;;13.90;99.90;;;;;;5053830;28;20073;-90
2022/02/26 10:00:42;;;;;;;12.57;8.32;;;14.20;99.90;;;;;;5053340;28;20383;-90
2022/02/26 10:03:27;;;;;;;11.13;7.68;;;14.50;99.90;;;;;;5051119;28;20061;-91
2022/02/26 10:06:11;;;;;;;9.23;6.10;;;15.00;99.90;;;;;;5052474;28;20049;-89
2022/02/26 10:08:40;;;;;;;9.85;6.07;;;15.30;99.90;;;;;;5054041;28;20037;-92
2022/02/26 10:11:07;;;;;;;11.38;7.47;;;15.70;99.90;;;;;;5042281;28;20025;-91
2022/02/26 10:13:43;;;;;;;10.50;6.47;;;16.00;99.90;;;;;;5037537;28;20033;-91
2022/02/26 10:16:08;;;;;;;10.82;6.72;;;16.40;99.90;;;;;;5037618;28;20033;-92
2022/02/26 10:18:34;;;;;;;10.05;6.78;;;16.70;99.90;;;;;;5037227;28;20503;-93
2022/02/26 10:21:02;;;;;;;10.55;5.88;;;17.00;99.90;;;;;;5036872;28;20475;-92
2022/02/26 10:23:28;;;;;;;9.63;4.90;;;17.30;99.90;;;;;;5038054;28;20061;-91
2022/02/26 10:26:13;;;;;;;13.30;5.78;;;17.50;99.90;;;;;;5038816;28;20033;-93
2022/02/26 10:28:40;;;;;;;10.20;4.30;;;17.80;99.90;;;;;;5038464;28;20048;-94
2022/02/26 10:31:07;;;;;;;12.07;5.88;;;18.00;99.90;;;;;;5041389;28;20029;-93
2022/02/26 10:33:33;;;;;;;11.77;5.10;;;18.20;99.90;;;;;;5036686;28;20037;-92
2022/02/26 10:36:06;;;;;;;11.70;4.22;;;18.10;99.90;;;;;;5029845;28;20033;-92
2022/02/26 10:38:36;;;;;;;11.88;4.07;;;18.20;99.90;;;;;;5028505;28;20038;-93
2022/02/26 10:41:08;;;;;;;14.10;4.47;;;18.40;99.90;;;;;;5029376;28;20026;-92
2022/02/26 10:43:51;;;;;;;10.27;3.58;;;18.50;99.90;;;;;;5028888;28;20129;-93
2022/02/26 10:46:20;;;;;;;8.13;2.70;;;18.80;99.90;;;;;;5024647;28;20026;-92
2022/02/26 10:48:47;;;;;;;10.52;3.20;;;19.00;99.90;;;;;;5037482;28;20048;-94
2022/02/26 10:51:17;;;;;;;8.95;2.38;;;19.20;99.90;;;;;;5036185;28;20087;-92
2022/02/26 10:53:44;;;;;;;18.80;4.28;;;19.30;99.90;;;;;;5035613;28;20403;-92
2022/02/26 10:56:10;;;;;;;14.25;2.72;;;19.40;99.90;;;;;;5033064;28;20044;-94
2022/02/26 10:58:36;;;;;;;12.05;3.45;;;19.30;99.90;;;;;;5015542;28;20057;-92
2022/02/26 11:01:04;;;;;;;11.77;3.72;;;19.10;99.90;;;;;;5015179;28;20040;-91
2022/02/26 11:03:30;;;;;;;12.60;4.30;;;19.20;99.90;;;;;;5013894;28;20038;-91
2022/02/26 11:05:57;;;;;;;10.23;4.75;;;19.10;99.90;;;;;;5015105;28;20030;-93
2022/02/26 11:08:23;;;;;;;9.43;3.38;;;19.10;99.90;;;;;;5015892;28;20021;-92
2022/02/26 11:10:52;;;;;;;9.95;3.90;;;19.30;99.90;;;;;;5015467;28;20115;-92
2022/02/26 11:13:21;;;;;;;9.48;2.80;;;19.50;99.90;;;;;;5015477;28;20499;-91
2022/02/26 11:15:51;;;;;;;13.23;3.85;;;19.70;99.90;;;;;;5019525;28;20037;-91
2022/02/26 11:18:18;;;;;;;6.97;3.28;;;19.90;99.90;;;;;;5035009;28;20025;-92
2022/02/26 11:20:44;;;;;;;9.88;3.38;;;19.10;99.90;;;;;;5036808;28;20072;-92
2022/02/26 11:23:11;;;;;;;11.82;3.25;;;18.80;99.90;;;;;;5035694;28;20030;-92
2022/02/26 11:25:37;;;;;;;9.07;3.03;;;19.00;99.90;;;;;;5026669;28;20063;-92
2022/02/26 11:28:03;;;;;;;8.05;2.83;;;19.50;99.90;;;;;;5036167;28;20080;-93
2022/02/26 11:30:40;;;;;;;7.85;2.20;;;19.60;99.90;;;;;;5048969;28;20017;-92
2022/02/26 11:33:06;;;;;;;8.32;2.30;;;20.00;99.90;;;;;;5052010;28;20041;-90
2022/02/26 11:35:32;;;;;;;7.25;1.80;;;19.80;99.90;;;;;;5053284;28;20030;-90
2022/02/26 11:38:07;;;;;;;9.98;2.28;;;19.50;99.90;;;;;;5047646;28;20033;-91
2022/02/26 11:40:33;;;;;;;7.82;1.90;;;19.60;99.40;;;;;;5040761;28;20029;-92
2022/02/26 11:43:00;;;;;;;8.85;2.22;;;19.50;99.60;;;;;;5035827;28;20030;-90
2022/02/26 11:45:29;;;;;;;9.13;2.10;;;18.40;99.30;;;;;;5034546;28;20029;-90
2022/02/26 11:48:02;;;;;;;9.88;2.35;;;17.00;99.90;;;;;;5034899;28;20033;-90
2022/02/26 11:50:34;;;;;;;10.73;2.25;;;16.10;99.90;;;;;;5036216;28;20506;-90
2022/02/26 11:53:06;;;;;;;10.10;2.22;;;15.70;99.90;;;;;;5034171;28;20034;-91
2022/02/26 11:55:37;;;;;;;12.32;2.72;;;15.10;99.90;;;;;;5037091;28;20033;-95
2022/02/26 11:58:33;;;;;;;6.68;1.70;;;13.80;99.90;;;;;;5036655;28;20061;-93
2022/02/26 12:01:13;;;;;;;8.35;2.78;;;12.90;99.90;;;;;;5051325;28;20033;-93
2022/02/26 12:06:31;;;;;;;7.55;2.30;;;14.20;99.90;;;;;;5073700;23;20149;-91
2022/02/26 12:09:12;;;;;;;10.73;2.25;;;14.80;99.90;;;;;;4999205;28;20053;-89
2022/02/26 12:11:43;;;;;;;13.57;3.40;;;15.00;99.90;;;;;;4994354;28;20037;-90
2022/02/26 12:14:25;;;;;;;14.02;2.38;;;16.20;99.90;;;;;;5014735;28;20033;-90
2022/02/26 12:16:56;;;;;;;6.65;1.70;;;17.20;99.90;;;;;;5012927;28;20107;-89
2022/02/26 12:19:23;;;;;;;11.60;2.90;;;17.10;99.90;;;;;;5012664;28;20068;-91
2022/02/26 12:21:51;;;;;;;12.90;2.70;;;16.00;99.90;;;;;;5000151;28;20061;-91
2022/02/26 12:24:25;;;;;;;7.40;1.77;;;15.80;99.90;;;;;;4998537;28;20449;-89
2022/02/26 12:26:57;;;;;;;9.85;2.15;;;16.70;99.90;;;;;;4997199;28;20060;-90
2022/02/26 12:29:26;;;;;;;8.18;1.70;;;17.80;99.90;;;;;;4998393;28;20069;-90
2022/02/26 12:31:54;;;;;;;7.85;2.05;;;18.50;99.90;;;;;;4998103;28;20034;-89
2022/02/26 12:34:20;;;;;;;11.05;2.08;;;19.10;99.10;;;;;;4998753;28;20049;-89
2022/02/26 12:37:11;;;;;;;10.95;2.60;;;18.30;96.10;;;;;;4999551;28;20357;-89
2022/02/26 12:39:46;;;;;;;9.65;2.20;;;16.60;98.80;;;;;;5016655;28;20036;-90
2022/02/26 12:42:21;;;;;;;8.80;1.90;;;15.70;99.90;;;;;;4997452;28;20049;-88
2022/02/26 12:44:47;;;;;;;8.43;2.42;;;15.00;99.90;;;;;;4996747;28;20030;-88
2022/02/26 12:47:13;;;;;;;8.43;2.08;;;14.90;99.90;;;;;;4995799;28;20072;-89